createdAt,value
2018-11-11T00:01:44.720Z,2.47
2018-11-11T00:04:12.141Z,1.93
2018-11-11T00:06:39.608Z,2.50
2018-11-11T00:09:07.311Z,2.37
2018-11-11T00:11:34.824Z,2.17
2018-11-11T00:14:02.262Z,3.37
2018-11-11T00:16:29.715Z,2.10
2018-11-11T00:18:57.386Z,2.27
2018-11-11T00:21:24.832Z,2.30
2018-11-11T00:23:52.258Z,2.07
2018-11-11T00:26:19.684Z,1.80
2018-11-11T00:28:47.235Z,2.13
2018-11-11T00:31:14.594Z,1.97
2018-11-11T00:33:42.015Z,1.80
2018-11-11T00:36:09.469Z,2.00
2018-11-11T00:38:36.884Z,2.00
2018-11-11T00:41:04.384Z,2.00
2018-11-11T00:43:31.848Z,1.73
2018-11-11T00:45:59.263Z,2.73
2018-11-11T00:48:26.686Z,1.93
2018-11-11T00:50:54.140Z,2.00
2018-11-11T00:53:21.588Z,1.80
2018-11-11T00:55:49.040Z,2.27
2018-11-11T00:58:16.475Z,1.70
2018-11-11T01:00:43.911Z,1.77
2018-11-11T01:03:11.373Z,1.90
2018-11-11T01:05:38.820Z,2.23
2018-11-11T01:08:06.276Z,2.00
2018-11-11T01:10:33.689Z,1.93
2018-11-11T01:13:01.157Z,2.33
2018-11-11T01:15:28.811Z,1.67
2018-11-11T01:17:56.283Z,2.47
2018-11-11T01:20:23.714Z,1.70
2018-11-11T01:22:51.186Z,2.10
2018-11-11T01:25:18.624Z,1.37
2018-11-11T01:27:46.071Z,2.23
2018-11-11T01:30:13.501Z,2.23
2018-11-11T01:32:40.933Z,1.80
2018-11-11T01:35:10.256Z,1.83
2018-11-11T01:37:38.098Z,2.73
2018-11-11T01:40:05.841Z,1.93
2018-11-11T01:42:33.288Z,1.73
2018-11-11T01:45:00.755Z,1.70
2018-11-11T01:47:28.169Z,1.23
2018-11-11T01:49:55.612Z,1.90
2018-11-11T01:52:23.059Z,1.70
2018-11-11T01:54:50.515Z,1.47
2018-11-11T01:57:17.934Z,1.60
2018-11-11T01:59:45.501Z,1.60
2018-11-11T02:02:12.933Z,1.83
2018-11-11T02:04:40.356Z,1.50
2018-11-11T02:07:07.827Z,2.10
2018-11-11T02:09:35.264Z,1.50
2018-11-11T02:12:02.726Z,2.03
2018-11-11T02:14:30.231Z,2.20
2018-11-11T02:16:57.775Z,1.67
2018-11-11T02:19:25.208Z,2.17
2018-11-11T02:21:52.637Z,1.97
2018-11-11T02:24:20.053Z,1.90
2018-11-11T02:26:47.509Z,1.90
2018-11-11T02:29:14.935Z,1.87
2018-11-11T02:31:42.346Z,2.63
2018-11-11T02:34:09.807Z,2.50
2018-11-11T02:36:37.346Z,2.43
2018-11-11T02:39:06.184Z,2.17
2018-11-11T02:41:33.863Z,1.63
2018-11-11T02:44:01.324Z,1.43
2018-11-11T02:46:28.789Z,2.03
2018-11-11T02:48:56.313Z,1.87
2018-11-11T02:51:23.768Z,2.33
2018-11-11T02:53:51.204Z,2.77
2018-11-11T02:56:18.625Z,2.13
2018-11-11T02:58:46.019Z,1.97
2018-11-11T03:01:13.461Z,1.80
2018-11-11T03:03:40.859Z,2.23
2018-11-11T03:06:08.284Z,2.00
2018-11-11T03:08:35.731Z,2.20
2018-11-11T03:11:03.171Z,1.97
2018-11-11T03:13:30.596Z,2.50
2018-11-11T03:15:58.065Z,1.80
2018-11-11T03:18:25.470Z,2.20
2018-11-11T03:20:52.864Z,1.83
2018-11-11T03:23:20.315Z,2.10
2018-11-11T03:25:47.818Z,2.00
2018-11-11T03:28:15.208Z,1.30
2018-11-11T03:30:42.883Z,1.90
2018-11-11T03:33:10.277Z,1.70
2018-11-11T03:35:37.722Z,1.97
2018-11-11T03:38:05.154Z,2.47
2018-11-11T03:40:32.549Z,1.40
2018-11-11T03:42:59.948Z,1.87
2018-11-11T03:45:27.392Z,2.10
2018-11-11T03:47:54.792Z,2.20
2018-11-11T03:50:22.216Z,2.73
2018-11-11T03:52:49.646Z,1.90
2018-11-11T03:55:17.197Z,2.50
2018-11-11T03:57:44.618Z,1.77
2018-11-11T04:00:13.257Z,1.57
2018-11-11T04:02:40.647Z,1.47
2018-11-11T04:05:08.733Z,2.00
2018-11-11T04:07:36.271Z,1.90
2018-11-11T04:10:04.499Z,1.70
2018-11-11T04:12:31.883Z,1.43
2018-11-11T04:14:59.337Z,2.03
2018-11-11T04:17:26.785Z,2.57
2018-11-11T04:19:54.191Z,1.70
2018-11-11T04:22:21.624Z,2.00
2018-11-11T04:24:50.370Z,2.00
2018-11-11T04:27:18.027Z,1.43
2018-11-11T04:29:45.765Z,1.40
2018-11-11T04:32:13.213Z,2.17
2018-11-11T04:34:41.521Z,1.30
2018-11-11T04:37:09.332Z,2.07
2018-11-11T04:39:36.814Z,1.20
2018-11-11T04:42:04.481Z,1.80
2018-11-11T04:44:31.884Z,2.07
2018-11-11T04:46:59.316Z,1.57
2018-11-11T04:49:26.766Z,1.73
2018-11-11T04:51:54.203Z,1.47
2018-11-11T04:54:21.615Z,1.43
2018-11-11T04:56:49.025Z,1.87
2018-11-11T04:59:16.432Z,1.37
2018-11-11T05:01:43.878Z,1.00
2018-11-11T05:04:11.400Z,1.33
2018-11-11T05:06:38.847Z,1.30
2018-11-11T05:09:07.695Z,0.93
2018-11-11T05:11:35.170Z,1.00
2018-11-11T05:14:02.626Z,1.27
2018-11-11T05:16:30.069Z,1.03
2018-11-11T05:18:57.680Z,0.83
2018-11-11T05:21:25.092Z,1.10
2018-11-11T05:23:52.535Z,1.00
2018-11-11T05:26:19.966Z,1.30
2018-11-11T05:28:47.400Z,1.27
2018-11-11T05:31:14.840Z,1.13
2018-11-11T05:33:42.253Z,1.10
2018-11-11T05:36:09.667Z,1.67
2018-11-11T05:38:37.649Z,1.77
2018-11-11T05:41:05.112Z,1.27
2018-11-11T05:43:32.511Z,0.90
2018-11-11T05:46:00.282Z,1.10
2018-11-11T05:48:27.691Z,0.80
2018-11-11T05:50:55.113Z,1.77
2018-11-11T05:53:22.545Z,1.10
2018-11-11T05:55:49.969Z,1.20
2018-11-11T05:58:17.392Z,1.13
2018-11-11T06:00:44.811Z,1.27
2018-11-11T06:03:13.229Z,0.90
2018-11-11T06:05:40.901Z,1.30
2018-11-11T06:08:08.326Z,1.30
2018-11-11T06:10:36.264Z,1.00
2018-11-11T06:13:03.765Z,1.60
2018-11-11T06:15:31.177Z,1.27
2018-11-11T06:17:58.587Z,1.47
2018-11-11T06:20:26.051Z,0.73
2018-11-11T06:22:53.444Z,1.57
2018-11-11T06:25:20.837Z,1.27
2018-11-11T06:27:48.270Z,1.73
2018-11-11T06:30:15.683Z,1.70
2018-11-11T06:32:43.088Z,1.67
2018-11-11T06:35:10.550Z,1.60
2018-11-11T06:37:38.230Z,1.33
2018-11-11T06:40:06.633Z,1.40
2018-11-11T06:42:34.100Z,1.00
2018-11-11T06:45:01.543Z,1.30
2018-11-11T06:47:29.133Z,1.10
2018-11-11T06:49:56.591Z,1.20
2018-11-11T06:52:24.081Z,1.27
2018-11-11T06:54:51.805Z,1.20
2018-11-11T06:57:19.235Z,1.47
2018-11-11T06:59:46.666Z,1.73
2018-11-11T07:02:14.171Z,1.47
2018-11-11T07:04:41.622Z,1.07
2018-11-11T07:07:09.061Z,1.60
2018-11-11T07:09:36.485Z,1.77
2018-11-11T07:12:04.132Z,1.70
2018-11-11T07:14:31.597Z,1.60
2018-11-11T07:16:59.107Z,1.47
2018-11-11T07:19:26.676Z,0.90
2018-11-11T07:21:54.109Z,1.40
2018-11-11T07:24:21.688Z,1.03
2018-11-11T07:26:49.144Z,1.17
2018-11-11T07:29:16.633Z,1.33
2018-11-11T07:31:44.060Z,1.30
2018-11-11T07:34:11.573Z,1.40
2018-11-11T07:36:39.045Z,1.20
2018-11-11T07:39:09.280Z,1.40
2018-11-11T07:41:36.736Z,1.40
2018-11-11T07:44:04.229Z,1.33
2018-11-11T07:46:31.682Z,1.30
2018-11-11T07:48:59.119Z,1.77
2018-11-11T07:51:26.578Z,1.50
2018-11-11T07:53:54.082Z,1.70
2018-11-11T07:56:21.586Z,2.27
2018-11-11T07:58:49.020Z,1.93
2018-11-11T08:01:16.456Z,1.43
2018-11-11T08:03:43.940Z,1.10
2018-11-11T08:06:11.370Z,2.67
2018-11-11T08:08:38.884Z,1.90
2018-11-11T08:11:11.956Z,1.33
2018-11-11T08:13:39.416Z,1.13
2018-11-11T08:16:06.831Z,1.30
2018-11-11T08:18:34.522Z,1.77
2018-11-11T08:21:01.944Z,0.80
2018-11-11T08:23:29.375Z,1.20
2018-11-11T08:25:57.126Z,1.47
2018-11-11T08:28:24.626Z,1.47
2018-11-11T08:30:52.099Z,0.93
2018-11-11T08:33:19.603Z,1.30
2018-11-11T08:35:47.114Z,1.50
2018-11-11T08:38:14.548Z,1.70
2018-11-11T08:40:42.074Z,1.17
2018-11-11T08:43:09.506Z,0.87
2018-11-11T08:45:36.928Z,1.70
2018-11-11T08:48:06.904Z,1.33
2018-11-11T08:50:34.322Z,1.30
2018-11-11T08:53:02.456Z,0.90
2018-11-11T08:55:30.176Z,1.30
2018-11-11T08:57:57.716Z,2.10
2018-11-11T09:00:25.136Z,1.67
2018-11-11T09:02:53.535Z,1.57
2018-11-11T09:05:21.001Z,1.77
2018-11-11T09:07:48.429Z,1.60
2018-11-11T09:10:15.968Z,1.50
2018-11-11T09:12:43.401Z,1.33
2018-11-11T09:15:12.424Z,1.43
2018-11-11T09:17:40.687Z,1.90
2018-11-11T09:20:08.710Z,0.97
2018-11-11T09:22:36.153Z,1.70
2018-11-11T09:25:04.032Z,1.37
2018-11-11T09:27:31.476Z,1.37
2018-11-11T09:30:00.249Z,1.50
2018-11-11T09:32:27.702Z,1.07
2018-11-11T09:34:55.196Z,0.80
2018-11-11T09:37:22.623Z,0.93
2018-11-11T09:39:50.095Z,1.40
2018-11-11T09:42:17.587Z,1.30
2018-11-11T09:44:45.053Z,1.27
2018-11-11T09:47:12.490Z,0.67
2018-11-11T09:49:40.141Z,1.10
2018-11-11T09:52:07.615Z,1.43
2018-11-11T09:54:35.051Z,1.73
2018-11-11T09:57:02.559Z,2.40
2018-11-11T09:59:30.140Z,1.30
2018-11-11T10:02:00.550Z,1.97
2018-11-11T10:04:36.742Z,1.10
2018-11-11T10:07:09.948Z,1.70
2018-11-11T10:09:43.051Z,1.60
2018-11-11T10:12:25.941Z,1.50
2018-11-11T10:14:58.924Z,1.70
2018-11-11T10:19:34.965Z,2.07
2018-11-11T10:22:08.744Z,1.40
2018-11-11T10:26:44.738Z,1.33
2018-11-11T10:31:20.829Z,1.27
2018-11-11T10:33:55.995Z,1.93
2018-11-11T10:36:28.031Z,2.23
2018-11-11T10:39:02.257Z,2.10
2018-11-11T10:41:43.334Z,1.90
2018-11-11T10:44:25.301Z,1.93
2018-11-11T10:46:57.282Z,2.27
2018-11-11T10:49:30.394Z,2.07
2018-11-11T10:51:57.958Z,2.13
2018-11-11T10:54:25.547Z,2.20
2018-11-11T10:56:52.996Z,1.77
2018-11-11T10:59:20.515Z,2.13
2018-11-11T11:01:53.723Z,1.67
2018-11-11T11:04:21.272Z,1.63
2018-11-11T11:06:54.298Z,2.00
2018-11-11T11:09:21.935Z,1.87
2018-11-11T11:11:49.365Z,1.70
2018-11-11T11:14:17.030Z,1.40
2018-11-11T11:16:44.460Z,1.90
2018-11-11T11:19:11.875Z,1.37
2018-11-11T11:21:39.312Z,1.73
2018-11-11T11:24:06.849Z,2.20
2018-11-11T11:26:34.319Z,1.17
2018-11-11T11:29:01.736Z,3.03
2018-11-11T11:31:29.186Z,1.90
2018-11-11T11:33:56.837Z,1.97
2018-11-11T11:36:24.501Z,1.30
2018-11-11T11:38:51.936Z,1.83
2018-11-11T11:41:19.433Z,2.60
2018-11-11T11:43:46.822Z,4.57
2018-11-11T11:46:14.222Z,2.00
2018-11-11T11:48:41.675Z,1.53
2018-11-11T11:51:09.141Z,1.37
2018-11-11T11:53:36.562Z,1.27
2018-11-11T11:56:04.237Z,1.87
2018-11-11T11:58:32.002Z,1.77
2018-11-11T12:00:59.467Z,1.53
2018-11-11T12:03:26.911Z,1.77
2018-11-11T12:05:54.535Z,2.03
2018-11-11T12:08:22.047Z,1.40
2018-11-11T12:10:49.467Z,1.83
2018-11-11T12:13:17.311Z,1.77
2018-11-11T12:15:44.878Z,1.00
2018-11-11T12:18:12.454Z,1.10
2018-11-11T12:20:40.275Z,1.03
2018-11-11T12:23:07.824Z,1.43
2018-11-11T12:25:36.039Z,1.20
2018-11-11T12:28:03.548Z,1.57
2018-11-11T12:30:31.045Z,1.70
2018-11-11T12:32:58.588Z,1.40
2018-11-11T12:35:26.017Z,1.63
2018-11-11T12:37:54.059Z,2.37
2018-11-11T12:40:21.561Z,1.40
2018-11-11T12:42:49.021Z,1.23
2018-11-11T12:45:16.733Z,1.43
2018-11-11T12:47:44.169Z,1.17
2018-11-11T12:50:12.252Z,1.23
2018-11-11T12:52:39.812Z,1.27
2018-11-11T12:55:07.423Z,1.67
2018-11-11T12:57:34.944Z,1.80
2018-11-11T13:00:02.474Z,1.47
2018-11-11T13:02:29.930Z,1.30
2018-11-11T13:04:57.506Z,1.70
2018-11-11T13:07:25.349Z,1.40
2018-11-11T13:09:52.822Z,1.60
2018-11-11T13:12:20.384Z,1.70
2018-11-11T13:14:47.779Z,1.73
2018-11-11T13:17:16.321Z,1.63
2018-11-11T13:19:43.891Z,1.73
2018-11-11T13:22:11.716Z,2.23
2018-11-11T13:24:39.080Z,1.80
2018-11-11T13:27:06.710Z,1.47
2018-11-11T13:29:34.177Z,2.30
2018-11-11T13:32:01.698Z,3.80
2018-11-11T13:34:29.303Z,4.30
2018-11-11T13:36:56.862Z,3.27
2018-11-11T13:39:24.296Z,2.50
2018-11-11T13:41:51.750Z,2.10
2018-11-11T13:44:19.244Z,3.13
2018-11-11T13:46:46.784Z,2.00
2018-11-11T13:49:14.297Z,2.10
2018-11-11T13:51:42.052Z,2.80
2018-11-11T13:54:09.511Z,2.70
2018-11-11T13:56:37.201Z,2.30
2018-11-11T13:59:04.820Z,2.57
2018-11-11T14:01:32.347Z,2.53
2018-11-11T14:03:59.769Z,2.10
2018-11-11T14:06:27.298Z,2.67
2018-11-11T14:08:54.637Z,2.20
2018-11-11T14:11:22.086Z,2.70
2018-11-11T14:13:49.516Z,2.27
2018-11-11T14:16:16.987Z,2.23
2018-11-11T14:18:44.777Z,2.17
2018-11-11T14:21:12.053Z,2.53
2018-11-11T14:23:39.509Z,2.53
2018-11-11T14:26:06.974Z,2.10
2018-11-11T14:28:34.450Z,2.43
2018-11-11T14:31:01.884Z,1.90
2018-11-11T14:33:29.614Z,1.50
2018-11-11T14:35:57.133Z,1.70
2018-11-11T14:38:24.685Z,1.73
2018-11-11T14:40:52.129Z,2.27
2018-11-11T14:43:19.624Z,1.97
2018-11-11T14:45:48.562Z,2.30
2018-11-11T14:48:16.009Z,1.97
2018-11-11T14:50:43.515Z,1.90
2018-11-11T14:53:10.976Z,2.50
2018-11-11T14:55:39.023Z,1.50
2018-11-11T14:58:06.657Z,1.77
2018-11-11T15:00:35.071Z,2.00
2018-11-11T15:03:11.157Z,1.77
2018-11-11T15:05:38.597Z,1.30
2018-11-11T15:08:06.141Z,2.30
2018-11-11T15:10:34.116Z,2.43
2018-11-11T15:13:01.656Z,1.87
2018-11-11T15:15:29.066Z,2.30
2018-11-11T15:17:57.740Z,1.83
2018-11-11T15:20:25.383Z,2.47
2018-11-11T15:22:52.840Z,2.07
2018-11-11T15:25:21.652Z,2.30
2018-11-11T15:27:49.212Z,1.90
2018-11-11T15:30:19.921Z,1.97
2018-11-11T15:32:47.543Z,2.13
2018-11-11T15:35:15.035Z,1.83
2018-11-11T15:37:42.574Z,2.10
2018-11-11T15:40:11.375Z,1.73
2018-11-11T15:42:39.016Z,1.80
2018-11-11T15:45:09.319Z,2.63
2018-11-11T15:47:36.882Z,3.07
2018-11-11T15:50:05.444Z,2.43
2018-11-11T15:52:32.898Z,3.60
2018-11-11T15:55:00.322Z,2.87
2018-11-11T15:57:27.804Z,2.40
2018-11-11T15:59:55.254Z,2.73
2018-11-11T16:02:22.742Z,2.63
2018-11-11T16:04:50.443Z,2.73
2018-11-11T16:07:17.857Z,2.73
2018-11-11T16:09:45.531Z,3.13
2018-11-11T16:12:13.049Z,2.17
2018-11-11T16:14:40.539Z,2.47
2018-11-11T16:17:07.960Z,1.97
2018-11-11T16:19:35.447Z,2.10
2018-11-11T16:22:02.995Z,2.00
2018-11-11T16:24:30.416Z,2.20
2018-11-11T16:26:58.058Z,2.00
2018-11-11T16:29:26.337Z,1.50
2018-11-11T16:31:53.899Z,1.57
2018-11-11T16:34:23.100Z,1.40
2018-11-11T16:36:50.893Z,1.70
2018-11-11T16:39:18.393Z,1.80
2018-11-11T16:41:45.837Z,1.70
2018-11-11T16:44:13.340Z,2.23
2018-11-11T16:46:40.802Z,2.47
2018-11-11T16:49:09.278Z,2.40
2018-11-11T16:51:36.846Z,2.57
2018-11-11T16:54:04.592Z,3.10
2018-11-11T16:56:32.044Z,2.00
2018-11-11T16:58:59.535Z,2.33
2018-11-11T17:01:27.034Z,2.47
2018-11-11T17:03:54.462Z,2.83
2018-11-11T17:06:21.957Z,2.23
2018-11-11T17:08:49.521Z,2.30
2018-11-11T17:11:16.925Z,1.97
2018-11-11T17:13:44.388Z,2.40
2018-11-11T17:16:11.922Z,2.50
2018-11-11T17:18:39.391Z,2.27
2018-11-11T17:21:06.868Z,2.93
2018-11-11T17:23:34.316Z,2.57
2018-11-11T17:26:01.769Z,2.20
2018-11-11T17:28:29.194Z,2.27
2018-11-11T17:30:56.601Z,2.67
2018-11-11T17:33:24.056Z,2.30
2018-11-11T17:35:51.522Z,2.40
2018-11-11T17:38:19.132Z,2.30
2018-11-11T17:40:46.574Z,1.20
2018-11-11T17:43:14.008Z,2.00
2018-11-11T17:45:41.457Z,1.90
2018-11-11T17:48:08.928Z,1.63
2018-11-11T17:50:36.376Z,1.87
2018-11-11T17:53:05.045Z,1.80
2018-11-11T17:55:32.597Z,1.57
2018-11-11T17:57:59.989Z,1.80
2018-11-11T18:00:28.702Z,1.60
2018-11-11T18:03:00.102Z,2.47
2018-11-11T18:05:28.488Z,1.60
2018-11-11T18:07:56.039Z,1.73
2018-11-11T18:10:24.321Z,1.97
2018-11-11T18:12:51.755Z,2.00
2018-11-11T18:15:21.819Z,1.43
2018-11-11T18:17:49.316Z,1.60
2018-11-11T18:20:23.962Z,2.33
2018-11-11T18:22:52.501Z,1.57
2018-11-11T18:25:19.967Z,2.30
2018-11-11T18:27:47.454Z,2.00
2018-11-11T18:30:19.983Z,2.17
2018-11-11T18:32:48.236Z,2.57
2018-11-11T18:35:16.381Z,1.90
2018-11-11T18:37:43.973Z,2.23
2018-11-11T18:40:12.774Z,2.00
2018-11-11T18:42:40.127Z,2.20
2018-11-11T18:45:08.812Z,3.37
2018-11-11T18:47:36.287Z,2.80
2018-11-11T18:50:04.441Z,3.33
2018-11-11T18:52:31.913Z,2.60
2018-11-11T18:54:59.418Z,2.50
2018-11-11T18:57:26.921Z,2.60
2018-11-11T18:59:54.338Z,2.80
2018-11-11T19:02:21.779Z,2.90
2018-11-11T19:04:49.230Z,2.67
2018-11-11T19:07:16.696Z,3.17
2018-11-11T19:09:44.248Z,2.53
2018-11-11T19:12:11.674Z,3.00
2018-11-11T19:14:39.146Z,3.30
2018-11-11T19:17:06.713Z,3.27
2018-11-11T19:19:34.158Z,3.17
2018-11-11T19:22:01.665Z,3.10
2018-11-11T19:24:29.261Z,3.90
2018-11-11T19:26:56.986Z,3.63
2018-11-11T19:29:24.469Z,3.73
2018-11-11T19:31:51.912Z,3.63
2018-11-11T19:34:19.421Z,4.50
2018-11-11T19:36:46.943Z,4.70
2018-11-11T19:39:14.415Z,5.07
2018-11-11T19:41:42.064Z,4.63
2018-11-11T19:44:10.137Z,4.33
2018-11-11T19:46:37.628Z,4.43
2018-11-11T19:49:05.215Z,4.80
2018-11-11T19:51:32.753Z,4.43
2018-11-11T19:54:00.374Z,4.90
2018-11-11T19:56:27.933Z,5.00
2018-11-11T19:58:55.460Z,5.47
2018-11-11T20:01:22.964Z,6.10
2018-11-11T20:03:50.517Z,6.00
2018-11-11T20:06:17.968Z,6.40
2018-11-11T20:08:45.388Z,6.07
2018-11-11T20:11:12.905Z,6.00
2018-11-11T20:13:40.305Z,6.60
2018-11-11T20:16:07.732Z,6.17
2018-11-11T20:18:35.176Z,6.17
2018-11-11T20:21:02.624Z,7.13
2018-11-11T20:23:30.050Z,6.73
2018-11-11T20:25:57.643Z,6.53
2018-11-11T20:28:25.083Z,6.73
2018-11-11T20:30:52.549Z,7.40
2018-11-11T20:33:19.981Z,7.20
2018-11-11T20:35:47.431Z,6.57
2018-11-11T20:38:14.903Z,7.57
2018-11-11T20:40:42.331Z,7.30
2018-11-11T20:43:09.855Z,7.50
2018-11-11T20:45:37.316Z,7.70
2018-11-11T20:48:04.796Z,6.97
2018-11-11T20:50:33.009Z,7.57
2018-11-11T20:53:01.755Z,7.20
2018-11-11T20:55:29.212Z,7.60
2018-11-11T20:57:56.831Z,6.30
2018-11-11T21:00:26.567Z,7.00
2018-11-11T21:02:54.068Z,6.00
2018-11-11T21:05:23.932Z,5.97
2018-11-11T21:07:52.858Z,7.43
2018-11-11T21:10:21.477Z,7.77
2018-11-11T21:12:49.220Z,6.60
2018-11-11T21:15:17.990Z,6.40
2018-11-11T21:17:45.696Z,5.73
2018-11-11T21:20:14.403Z,6.03
2018-11-11T21:22:42.353Z,5.60
2018-11-11T21:25:10.116Z,5.43
2018-11-11T21:27:38.616Z,5.37
2018-11-11T21:30:07.288Z,6.60
2018-11-11T21:32:34.861Z,6.17
2018-11-11T21:35:02.294Z,6.37
2018-11-11T21:37:29.836Z,5.80
2018-11-11T21:39:57.285Z,5.50
2018-11-11T21:42:24.790Z,5.97
2018-11-11T21:44:53.114Z,5.53
2018-11-11T21:47:20.553Z,6.43
2018-11-11T21:49:47.995Z,5.57
2018-11-11T21:52:15.610Z,5.73
2018-11-11T21:54:43.121Z,5.03
2018-11-11T21:57:10.659Z,5.77
2018-11-11T21:59:38.210Z,5.83
2018-11-11T22:02:05.919Z,5.53
2018-11-11T22:04:33.363Z,5.53
2018-11-11T22:07:00.805Z,5.23
2018-11-11T22:09:28.334Z,6.67
2018-11-11T22:11:55.741Z,5.23
2018-11-11T22:14:23.324Z,5.47
2018-11-11T22:16:50.909Z,5.20
2018-11-11T22:19:18.411Z,5.00
2018-11-11T22:21:45.856Z,5.17
2018-11-11T22:24:13.352Z,4.60
2018-11-11T22:26:40.788Z,4.30
2018-11-11T22:29:08.287Z,4.80
2018-11-11T22:31:35.711Z,4.53
2018-11-11T22:34:03.147Z,4.57
2018-11-11T22:36:30.563Z,5.23
2018-11-11T22:38:58.015Z,5.50
2018-11-11T22:41:25.677Z,4.77
2018-11-11T22:43:53.112Z,5.53
2018-11-11T22:46:20.560Z,5.13
2018-11-11T22:48:48.020Z,5.30
2018-11-11T22:51:15.474Z,4.93
2018-11-11T22:53:42.900Z,5.43
2018-11-11T22:56:10.410Z,6.57
2018-11-11T22:58:37.846Z,5.37
2018-11-11T23:01:11.009Z,5.80
2018-11-11T23:03:38.402Z,5.20
2018-11-11T23:06:05.861Z,5.10
2018-11-11T23:08:33.295Z,4.97
2018-11-11T23:11:00.746Z,5.00
2018-11-11T23:13:28.194Z,5.10
2018-11-11T23:15:55.602Z,7.40
2018-11-11T23:18:23.017Z,5.57
2018-11-11T23:20:50.773Z,5.57
2018-11-11T23:23:18.191Z,5.77
2018-11-11T23:25:45.611Z,5.87
2018-11-11T23:28:13.079Z,5.90
2018-11-11T23:30:40.546Z,5.47
2018-11-11T23:33:07.980Z,5.70
2018-11-11T23:35:35.420Z,5.70
2018-11-11T23:38:02.841Z,6.57
2018-11-11T23:41:01.259Z,6.13
2018-11-11T23:43:28.670Z,6.53
2018-11-11T23:45:56.138Z,6.37
2018-11-11T23:48:23.854Z,5.83
2018-11-11T23:50:51.275Z,5.50
2018-11-11T23:53:18.710Z,5.87
2018-11-11T23:55:46.140Z,6.43
2018-11-11T23:58:13.537Z,6.93
